RUNMAGEDDON REKRUT GDAŃSK

Wydarzenie:
Organizator:
Extreme Events, Runmageddon
Data:
2020-09-12
Miejsce:
Gdańsk
Dystans:
6 km
Zgłoszonych:
1971
Wystartowało:
1602
Nie ukończyło:
7
Ukończyło:
1595
Na trasie:
7
Pełne wyniki :
Wyniki uproszczone:
Wyniki nieoficjalne !!!
Klasyfikacje w punktach pomiarowych: Start | Meta

Klasyfikacja wg czasów brutto.
MscZawodnikNumerKlubMiejscowośćKrajKategoriaMkatK/MSeriaCzas startuCzas
netto
6km
Czas
brutto
6km
Różn.Tempo
min/km
Tempo
km/h
        
1BUJNOWSKI Kamil 1219Open Mężczyzn10M 4312:0000:00:0000:47:50.9500:47:50.95 7:587,5
2BILEWICZ Michał 1218Open Mężczyzn11M 4512:0000:00:0000:47:51.0000:47:51.00+00:00:007:587,5
3DZIĘBOWSKI Jakub 1223Open Mężczyzn12M 4712:0000:00:0000:48:01.3500:48:01.35+00:00:108:007,5
4KARWOWSKI Tomasz 1186Lecim razemOpen Mężczyzn52M 11612:0000:00:0000:55:48.0500:55:48.05+00:07:579:186,5
5SŁODOWSKI Łukasz 1187Lecim razemOpen Mężczyzn61M 12812:0000:00:0000:56:31.6000:56:31.60+00:08:409:256,4
6DRABIŃSKI Jacek 1708Open Masters Mężczyzn19M 21312:0000:00:0001:00:55.3501:00:55.35+00:13:0410:095,9
7STRZELKA Kacper 1248Open Mężczyzn127M 22112:0000:00:0001:01:13.5501:01:13.55+00:13:2210:125,9
8PYLHUN Alla 1241Open Kobiet8K 2612:0000:00:0001:01:25.5501:01:25.55+00:13:3410:145,9
9WOŹNIAK Jarosław 1252Open Masters Mężczyzn23M 24012:0000:00:0001:02:12.3501:02:12.35+00:14:2110:225,8
10DMOWSKI Robert 1220Open Mężczyzn195M 31112:0000:00:0001:05:25.2501:05:25.25+00:17:3410:545,5
11DMOWSKI Tomasz 1221Open Mężczyzn198M 31412:0000:00:0001:05:26.0001:05:26.00+00:17:3510:545,5
12ROGALSKA Paula 1497Open Kobiet39K 6212:0000:00:0001:08:01.1501:08:01.15+00:20:1011:205,3
13MASZTAKOW Mikołaj 1180Krzywa MasztaOpen Mężczyzn294M 44312:0000:00:0001:09:41.8001:09:41.80+00:21:5011:365,2
14GÓRNICZ Marcin 1181KuracjuszeOpen Mężczyzn303M 45212:0000:00:0001:10:15.4501:10:15.45+00:22:2411:425,1
15PRUŚ Maciej 1184KuracjuszeOpen Mężczyzn305M 45512:0000:00:0001:10:31.5501:10:31.55+00:22:4011:455,1
16MACHYNIA Kamil 1182KuracjuszeOpen Mężczyzn309M 46012:0000:00:0001:10:45.3501:10:45.35+00:22:5411:475,1
17MACIJEWICZ Maciej 1166CannabiGoldOpen Mężczyzn341M 49512:0000:00:0001:11:59.6501:11:59.65+00:24:0811:595,0
18RADELCZUK Michał 1169CannabiGoldOpen Mężczyzn342M 49612:0000:00:0001:12:00.1501:12:00.15+00:24:0912:005,0
19KWIATKOWSKI Daniel 1173CPTOpen Mężczyzn347M 50212:0000:00:0001:12:20.2001:12:20.20+00:24:2912:035,0
20RADELCZUK Aneta 1168CannabiGoldOpen Kobiet70K 10112:0000:00:0001:12:47.7001:12:47.70+00:24:5612:074,9
21ZABROCKI Dariusz 1216Wichert.bodybuildingOpen Mężczyzn358M 52012:0000:00:0001:13:13.8001:13:13.80+00:25:2212:124,9
22GĘCA Kacper 1172CPTOpen Mężczyzn362M 52412:0000:00:0001:13:21.1501:13:21.15+00:25:3012:134,9
23PANDEW Julian 1183KuracjuszeOpen Mężczyzn375M 54012:0000:00:0001:13:50.0501:13:50.05+00:25:5912:184,9
24POPIELARSKI Paweł 1197No Skill Just LuckOpen Mężczyzn379M 54412:0000:00:0001:14:04.6001:14:04.60+00:26:1312:204,9
25OLSZEWSKA Ewa 1167CannabiGoldOpen Kobiet91K 13112:0000:00:0001:15:11.9001:15:11.90+00:27:2012:314,8
26GRABOWSKI Bartosz 1195No Skill Just LuckOpen Mężczyzn406M 58112:0000:00:0001:15:17.1501:15:17.15+00:27:2612:324,8
27PIEKARSKI Ryszard 1209WalenieOpen Mężczyzn408M 58312:0000:00:0001:15:18.9501:15:18.95+00:27:2812:334,8
28SOLKA Maciej 1210WalenieOpen Mężczyzn410M 58512:0000:00:0001:15:20.7501:15:20.75+00:27:2912:334,8
29KUBISZEWSKI Michał 1226Open Mężczyzn412M 58712:0000:00:0001:15:22.4001:15:22.40+00:27:3112:334,8
30GRUDZIŃSKI Przemysław 1208WalenieOpen Mężczyzn417M 59312:0000:00:0001:15:42.1501:15:42.15+00:27:5112:374,8
31KORNIAK Grzegorz 1199OSTRE SZCZĘKIOpen Mężczyzn424M 60012:0000:00:0001:15:59.3501:15:59.35+00:28:0812:394,7
32KORNIAK Katarzyna 1201OSTRE SZCZĘKIOpen Kobiet99K 14012:0000:00:0001:16:01.2501:16:01.25+00:28:1012:404,7
33HODŻAJAN Angelika 1198OSTRE SZCZĘKIOpen Kobiet100K 14112:0000:00:0001:16:02.1501:16:02.15+00:28:1112:404,7
34GRUDZIŃSKI Dariusz 1207WalenieOpen Mężczyzn426M 60212:0000:00:0001:16:12.0501:16:12.05+00:28:2112:424,7
35KORNIAK Kacper 1200OSTRE SZCZĘKIOpen Mężczyzn432M 60912:0000:00:0001:16:32.5501:16:32.55+00:28:4112:454,7
36MALIK Szymon 1229Open Masters Mężczyzn102M 64512:0000:00:0001:18:09.4001:18:09.40+00:30:1813:014,6
37BEDNARSKA Beata 1217Open Kobiet118K 16412:0000:00:0001:18:09.9501:18:09.95+00:30:1913:014,6
38KRZYWY Przemek 1178Krzywa MasztaOpen Mężczyzn531M 73512:0000:00:0001:22:29.6501:22:29.65+00:34:3813:444,4
39MASZTAKOW Anna 1179Krzywa MasztaOpen Masters Kobiet29K 22312:0000:00:0001:23:08.9501:23:08.95+00:35:1813:514,3
40OLCZAK-ZIÓŁEK Daria 1236Open Kobiet179K 23812:0000:00:0001:24:05.1501:24:05.15+00:36:1414:004,3
41OLCZAK Dagmara 1235Open Kobiet180K 23912:0000:00:0001:24:05.4501:24:05.45+00:36:1414:004,3
42PRUSKI Robert 1240Open Mężczyzn563M 77312:0000:00:0001:24:05.9501:24:05.95+00:36:1514:004,3
43PANUCHNO Michał 1237Open Mężczyzn564M 77412:0000:00:0001:24:07.1501:24:07.15+00:36:1614:014,3
44ANTCZAK Klaudia 1154Brudni księgowiOpen Kobiet203K 26712:0000:00:0001:25:28.4001:25:28.40+00:37:3714:144,2
45OLSZEWSKA Klaudia 1157Brudni księgowiOpen Kobiet204K 26812:0000:00:0001:25:31.1501:25:31.15+00:37:4014:154,2
46MORAWIEC Adam 1231Open Mężczyzn594M 81112:0000:00:0001:25:40.7501:25:40.75+00:37:4914:164,2
47MADEJ Pamela 1155Brudni księgowiOpen Kobiet210K 27412:0000:00:0001:25:53.2501:25:53.25+00:38:0214:184,2
48POLITAŃSKI Tomasz 1206Saltus Sport TeamOpen Mężczyzn612M 83512:0000:00:0001:26:27.5001:26:27.50+00:38:3614:244,2
49GAŁAT Anna 1944Open Masters Kobiet37K 28912:0000:00:0001:26:32.4501:26:32.45+00:38:4114:254,2
50JASTRZĘBSKA Jowita 1203Saltus Sport TeamOpen Kobiet231K 29912:0000:00:0001:26:56.4501:26:56.45+00:39:0514:294,1
51PLUTOWSKI Dawid 1205Saltus Sport TeamOpen Mężczyzn627M 85712:0000:00:0001:27:17.0501:27:17.05+00:39:2614:324,1
52MISIEJKO Artur 1204Saltus Sport TeamOpen Masters Mężczyzn143M 85912:0000:00:0001:27:34.9501:27:34.95+00:39:4414:354,1
53MEKLER Agata 1156Brudni księgowiOpen Masters Kobiet42K 32012:0000:00:0001:28:45.7001:28:45.70+00:40:5414:474,1
54SZEREMETA Wojciech 1249Open Mężczyzn649M 88312:0000:00:0001:29:25.0501:29:25.05+00:41:3414:544,0
55WSZEBOROWSKA Sylwia 1159Brudni księgowiOpen Kobiet263K 33712:0000:00:0001:29:49.3501:29:49.35+00:41:5814:584,0
56ZASINA Agata 1160Brudni księgowiOpen Masters Kobiet45K 33912:0000:00:0001:29:52.0501:29:52.05+00:42:0114:584,0
57TYCNER Magdalena 1158Brudni księgowiOpen Kobiet294K 37412:0000:00:0001:32:49.0001:32:49.00+00:44:5815:283,9
58GRABOWSKA Joanna 1224Open Kobiet297K 37712:0000:00:0001:33:51.5001:33:51.50+00:46:0015:383,8
59GRABOWSKI Tomasz 1225Open Mężczyzn689M 93912:0000:00:0001:33:52.0501:33:52.05+00:46:0115:383,8
60SPISAK Dobrawa 1247Open Kobiet320K 40612:0000:00:0001:36:29.0001:36:29.00+00:48:3816:043,7
61PIERNICKA Dorota 1239Open Kobiet322K 40912:0000:00:0001:37:09.3001:37:09.30+00:49:1816:113,7
62RACZYŃSKI Wojciech 1242Open Mężczyzn809M 107812:0000:00:3602:02:07.8002:02:44.20+01:14:5320:212,9
Znaleziono 62 wynik(ów)